Time;durP1;ratioP1;P1;durP2;ratioP2;P2;SDS_P1;SDS_P2;PMS_P1;PMS_P2;Temp;Humidity;BMP_temperature;BMP_pressure;BME280_temperature;BME280_humidity;BME280_pressure;Samples;Min_cycle;Max_cycle;Signal;HPM_P1;HPM_P2
2021/05/30 00:02:08;;;;;;;1.70;1.40;;;;;;;5.88;100.00;94484.44;5072749;28;20542;-75
2021/05/30 00:04:34;;;;;;;2.93;1.43;;;;;;;5.84;100.00;94487.47;5072698;28;20203;-76
2021/05/30 00:07:00;;;;;;;1.50;1.40;;;;;;;5.81;100.00;94491.19;5072546;28;20225;-75
2021/05/30 00:09:26;;;;;;;1.90;1.50;;;;;;;5.86;100.00;94488.13;5072777;28;20203;-76
2021/05/30 00:11:52;;;;;;;1.87;1.40;;;;;;;5.81;100.00;94486.00;5072508;28;20236;-76
2021/05/30 00:14:19;;;;;;;1.92;1.35;;;;;;;5.72;100.00;94477.34;5072332;28;20832;-76
2021/05/30 00:16:45;;;;;;;1.50;1.40;;;;;;;5.65;100.00;94475.56;5074820;28;20203;-75
2021/05/30 00:19:11;;;;;;;4.87;1.50;;;;;;;5.65;100.00;94478.16;5076397;28;20669;-76
2021/05/30 00:21:38;;;;;;;2.57;1.40;;;;;;;5.56;100.00;94478.09;5076261;28;20289;-76
2021/05/30 00:24:04;;;;;;;3.73;1.67;;;;;;;5.47;100.00;94478.97;5076297;28;20227;-75
2021/05/30 00:26:30;;;;;;;1.87;1.50;;;;;;;5.43;100.00;94477.69;5076283;28;20650;-75
2021/05/30 00:28:57;;;;;;;2.00;1.40;;;;;;;5.40;100.00;94477.97;5076168;28;20677;-76
2021/05/30 00:31:24;;;;;;;3.93;1.87;;;;;;;5.44;100.00;94470.72;5076291;28;20195;-77
2021/05/30 00:33:50;;;;;;;3.83;1.23;;;;;;;5.35;100.00;94475.03;5076104;28;20199;-77
2021/05/30 00:36:16;;;;;;;1.60;1.50;;;;;;;5.32;100.00;94472.72;5075947;28;20227;-76
2021/05/30 00:38:42;;;;;;;1.70;1.50;;;;;;;5.27;100.00;94468.00;5076265;28;20213;-75
2021/05/30 00:41:08;;;;;;;2.00;1.40;;;;;;;5.29;100.00;94473.03;5076176;28;20549;-75
2021/05/30 00:43:43;;;;;;;2.20;1.43;;;;;;;5.27;100.00;94468.00;5076109;28;20277;-76
2021/05/30 00:46:11;;;;;;;1.77;1.53;;;;;;;5.31;100.00;94473.69;5078396;28;20214;-76
2021/05/30 00:48:37;;;;;;;2.20;1.40;;;;;;;5.22;100.00;94469.44;5075836;28;20194;-76
2021/05/30 00:51:03;;;;;;;1.93;1.60;;;;;;;5.16;100.00;94465.66;5076084;28;20202;-76
2021/05/30 00:53:29;;;;;;;2.63;1.33;;;;;;;5.14;100.00;94468.38;5075924;28;20206;-76
2021/05/30 00:55:55;;;;;;;4.17;1.90;;;;;;;5.14;100.00;94473.56;5075566;28;20715;-75
2021/05/30 00:58:21;;;;;;;4.43;1.60;;;;;;;5.11;100.00;94463.53;5075194;28;20445;-76
2021/05/30 01:00:47;;;;;;;4.70;1.80;;;;;;;5.15;100.00;94467.44;5075688;28;20213;-76
2021/05/30 01:03:14;;;;;;;2.73;1.80;;;;;;;5.11;100.00;94471.28;5075515;28;20198;-75
2021/05/30 01:05:40;;;;;;;1.30;1.20;;;;;;;5.09;100.00;94470.59;5075743;28;20206;-76
2021/05/30 01:08:06;;;;;;;1.73;1.37;;;;;;;5.08;100.00;94468.16;5075605;28;20553;-75
2021/05/30 01:10:33;;;;;;;1.60;1.40;;;;;;;5.06;100.00;94470.91;5075564;28;20207;-75
2021/05/30 01:13:01;;;;;;;2.03;1.70;;;;;;;5.08;100.00;94474.19;5075505;28;20203;-75
2021/05/30 01:15:28;;;;;;;2.20;1.53;;;;;;;5.04;100.00;94472.84;5075381;28;20276;-77
2021/05/30 01:17:55;;;;;;;2.00;1.70;;;;;;;5.02;100.00;94469.59;5075245;28;20596;-76
2021/05/30 01:20:24;;;;;;;1.47;1.37;;;;;;;5.00;100.00;94471.53;5075478;28;20669;-75
2021/05/30 01:22:50;;;;;;;2.23;1.60;;;;;;;4.98;100.00;94473.44;5075023;28;20256;-76
2021/05/30 01:25:20;;;;;;;2.07;1.60;;;;;;;4.95;100.00;94469.38;5075359;28;20207;-76
2021/05/30 01:27:47;;;;;;;3.30;1.87;;;;;;;4.88;100.00;94470.94;5074222;28;20297;-76
2021/05/30 01:30:16;;;;;;;2.17;1.40;;;;;;;4.87;100.00;94465.91;5075256;28;20210;-75
2021/05/30 01:32:42;;;;;;;2.63;1.40;;;;;;;4.82;100.00;94469.72;5075014;28;20203;-75
2021/05/30 01:35:10;;;;;;;2.47;1.77;;;;;;;4.96;100.00;94470.19;5075145;28;20368;-76
2021/05/30 01:37:36;;;;;;;2.87;1.67;;;;;;;4.90;100.00;94470.78;5075174;28;20202;-75
2021/05/30 01:40:02;;;;;;;1.80;1.50;;;;;;;4.85;100.00;94473.00;5074999;28;20206;-76
2021/05/30 01:42:29;;;;;;;1.67;1.50;;;;;;;4.91;100.00;94462.03;5074821;28;20260;-75
2021/05/30 01:44:55;;;;;;;3.43;1.63;;;;;;;4.84;100.00;94468.78;5074772;28;20223;-76
2021/05/30 01:47:22;;;;;;;4.97;1.53;;;;;;;4.78;100.00;94470.16;5074854;28;20217;-76
2021/05/30 01:49:48;;;;;;;1.83;1.53;;;;;;;4.76;100.00;94462.59;5074971;28;20198;-76
2021/05/30 01:52:14;;;;;;;2.40;1.67;;;;;;;4.75;100.00;94468.72;5074853;28;20248;-75
2021/05/30 01:54:43;;;;;;;1.77;1.53;;;;;;;4.74;100.00;94461.91;5074647;28;20620;-75
2021/05/30 01:57:10;;;;;;;1.73;1.40;;;;;;;4.79;100.00;94464.03;5074665;28;20287;-75
2021/05/30 01:59:38;;;;;;;2.50;1.70;;;;;;;4.81;100.00;94462.97;5074498;28;20209;-75
2021/05/30 02:02:05;;;;;;;3.37;1.87;;;;;;;4.80;100.00;94465.69;5074473;28;20570;-75
2021/05/30 02:04:35;;;;;;;3.07;1.70;;;;;;;4.81;100.00;94469.88;5074636;28;20203;-75
2021/05/30 02:07:01;;;;;;;3.40;1.70;;;;;;;4.74;100.00;94472.25;5074202;28;20195;-75
2021/05/30 02:09:27;;;;;;;4.40;1.90;;;;;;;4.78;100.00;94473.59;5074318;28;20206;-75
2021/05/30 02:11:54;;;;;;;2.97;1.80;;;;;;;4.85;100.00;94467.84;5074260;28;20218;-75
2021/05/30 02:14:20;;;;;;;5.73;1.70;;;;;;;4.86;100.00;94466.84;5074118;28;20653;-76
2021/05/30 02:16:47;;;;;;;1.60;1.50;;;;;;;4.78;100.00;94468.41;5074207;28;20256;-75
2021/05/30 02:19:13;;;;;;;4.17;2.93;;;;;;;4.80;100.00;94463.09;5074172;28;20661;-76
2021/05/30 02:21:43;;;;;;;3.73;1.60;;;;;;;4.78;100.00;94467.59;5074200;28;20198;-76
2021/05/30 02:24:10;;;;;;;3.35;1.83;;;;;;;4.76;100.00;94467.75;5073624;28;20449;-75
2021/05/30 02:26:36;;;;;;;2.13;1.60;;;;;;;4.84;100.00;94471.38;5074067;28;20199;-75
2021/05/30 02:29:03;;;;;;;2.23;1.40;;;;;;;4.91;100.00;94470.66;5074243;28;20202;-76
2021/05/30 02:31:29;;;;;;;1.50;1.40;;;;;;;4.95;100.00;94473.75;5074047;28;20225;-75
2021/05/30 02:33:56;;;;;;;2.50;1.50;;;;;;;4.89;100.00;94466.56;5073883;28;20201;-76
2021/05/30 02:36:23;;;;;;;2.00;1.67;;;;;;;4.90;100.00;94469.00;5073831;28;20299;-76
2021/05/30 02:38:49;;;;;;;2.87;1.70;;;;;;;4.84;100.00;94471.38;5073656;28;20202;-77
2021/05/30 02:41:15;;;;;;;2.00;1.50;;;;;;;4.81;100.00;94468.13;5073602;28;20226;-76
2021/05/30 02:43:41;;;;;;;3.73;1.50;;;;;;;4.76;100.00;94470.34;5076054;28;20645;-75
2021/05/30 02:46:07;;;;;;;2.00;1.63;;;;;;;4.72;100.00;94471.59;5073629;28;20249;-75
2021/05/30 02:48:35;;;;;;;4.47;1.80;;;;;;;4.70;100.00;94477.88;5073683;28;20248;-74
2021/05/30 02:51:02;;;;;;;2.10;1.43;;;;;;;4.72;100.00;94469.00;5073521;28;20205;-74
2021/05/30 02:53:30;;;;;;;6.03;1.80;;;;;;;4.70;100.00;94472.72;5073403;28;20202;-76
2021/05/30 02:55:56;;;;;;;1.87;1.53;;;;;;;4.67;100.00;94468.63;5073302;28;20232;-75
2021/05/30 02:58:22;;;;;;;3.53;1.98;;;;;;;4.65;100.00;94467.97;5073332;28;20445;-76
2021/05/30 03:00:48;;;;;;;2.37;1.60;;;;;;;4.65;100.00;94473.13;5073548;28;20202;-76
2021/05/30 03:03:14;;;;;;;2.83;1.80;;;;;;;4.73;100.00;94480.97;5073380;28;20203;-76
2021/05/30 03:05:40;;;;;;;1.97;1.77;;;;;;;4.71;100.00;94477.72;5073292;28;20623;-76
2021/05/30 03:08:07;;;;;;;2.77;1.87;;;;;;;4.69;100.00;94474.47;5073197;28;20238;-76
2021/05/30 03:10:33;;;;;;;2.50;1.83;;;;;;;4.64;100.00;94480.06;5073188;28;20194;-76
2021/05/30 03:12:59;;;;;;;2.17;1.77;;;;;;;4.64;100.00;94477.47;5073495;28;20205;-76
2021/05/30 03:15:27;;;;;;;2.33;1.70;;;;;;;4.55;100.00;94480.97;5073165;28;20238;-76
2021/05/30 03:17:53;;;;;;;2.60;1.63;;;;;;;4.54;100.00;94481.91;5073141;28;20204;-76
2021/05/30 03:20:20;;;;;;;5.83;1.60;;;;;;;4.60;100.00;94478.75;5073232;28;20206;-76
2021/05/30 03:22:46;;;;;;;4.40;2.00;;;;;;;4.62;100.00;94484.56;5072926;28;20202;-76
2021/05/30 03:25:14;;;;;;;3.93;1.73;;;;;;;4.60;100.00;94475.34;5073294;28;20211;-76
2021/05/30 03:27:40;;;;;;;3.17;1.57;;;;;;;4.62;100.00;94478.59;5073235;28;20205;-76
2021/05/30 03:30:08;;;;;;;2.20;1.77;;;;;;;4.64;100.00;94480.06;5073052;28;20546;-76
2021/05/30 03:32:35;;;;;;;2.47;1.83;;;;;;;4.60;100.00;94476.16;5073025;28;20210;-76
2021/05/30 03:35:01;;;;;;;2.20;1.70;;;;;;;4.61;100.00;94475.22;5072828;28;20233;-76
2021/05/30 03:37:27;;;;;;;3.33;1.80;;;;;;;4.55;100.00;94472.41;5072871;28;20209;-77
2021/05/30 03:39:57;;;;;;;7.40;2.00;;;;;;;4.60;100.00;94476.16;5073045;28;20203;-77
2021/05/30 03:42:27;;;;;;;4.07;1.97;;;;;;;4.61;100.00;94485.56;5072817;28;20248;-76
2021/05/30 03:44:56;;;;;;;2.90;1.70;;;;;;;4.64;100.00;94481.84;5072974;28;20213;-76
2021/05/30 03:47:22;;;;;;;3.57;1.50;;;;;;;4.69;100.00;94482.22;5072955;28;20199;-76
2021/05/30 03:49:48;;;;;;;6.60;2.17;;;;;;;4.85;100.00;94478.19;5072703;28;20244;-77
2021/05/30 03:52:14;;;;;;;3.70;2.30;;;;;;;4.87;100.00;94481.44;5071865;28;20442;-76
2021/05/30 03:54:40;;;;;;;4.47;2.20;;;;;;;4.92;100.00;94492.16;5072604;28;20658;-76
2021/05/30 03:57:06;;;;;;;4.17;1.70;;;;;;;4.99;100.00;94486.22;5072844;28;20224;-76
2021/05/30 03:59:33;;;;;;;2.53;1.87;;;;;;;5.02;100.00;94485.13;5072789;28;20207;-76
2021/05/30 04:01:59;;;;;;;2.47;2.10;;;;;;;5.06;100.00;94486.44;5072691;28;20577;-76
2021/05/30 04:04:25;;;;;;;2.23;1.70;;;;;;;5.09;100.00;94487.91;5072578;28;20253;-77
2021/05/30 04:06:51;;;;;;;10.43;1.83;;;;;;;5.21;100.00;94481.53;5072722;28;20199;-76
2021/05/30 04:09:17;;;;;;;6.20;2.20;;;;;;;5.47;100.00;94478.97;5072777;28;20207;-76
2021/05/30 04:11:43;;;;;;;5.70;1.90;;;;;;;5.55;100.00;94484.22;5072689;28;20198;-77
2021/05/30 04:14:09;;;;;;;4.63;2.17;;;;;;;5.57;100.00;94487.47;5072606;28;20534;-77
2021/05/30 04:16:35;;;;;;;2.30;1.80;;;;;;;5.63;100.00;94480.06;5072351;28;20222;-76
2021/05/30 04:19:01;;;;;;;3.03;1.80;;;;;;;5.63;100.00;94474.88;5072343;28;20212;-76
2021/05/30 04:21:27;;;;;;;3.70;2.07;;;;;;;5.87;100.00;94471.63;5072730;28;20593;-77
2021/05/30 04:23:53;;;;;;;3.40;1.90;;;;;;;5.92;100.00;94472.78;5072323;28;20235;-76
2021/05/30 04:26:19;;;;;;;2.53;1.80;;;;;;;5.97;100.00;94463.75;5072552;28;20253;-76
2021/05/30 04:28:45;;;;;;;3.13;1.60;;;;;;;5.99;100.00;94472.19;5072519;28;20714;-76
2021/05/30 04:31:12;;;;;;;3.30;1.80;;;;;;;6.22;100.00;94472.47;5072400;28;20203;-76
2021/05/30 04:33:39;;;;;;;4.63;2.23;;;;;;;6.47;100.00;94470.75;5072252;28;20293;-76
2021/05/30 04:36:05;;;;;;;3.33;2.00;;;;;;;6.57;100.00;94471.44;5074887;28;20230;-76
2021/05/30 04:38:31;;;;;;;4.97;2.00;;;;;;;6.75;100.00;94468.72;5072444;28;20278;-76
2021/05/30 04:41:00;;;;;;;2.23;1.80;;;;;;;6.87;100.00;94468.41;5072259;28;20207;-76
2021/05/30 04:43:26;;;;;;;7.00;2.00;;;;;;;7.02;100.00;94465.00;5072122;28;20293;-76
2021/05/30 04:45:55;;;;;;;4.80;2.20;;;;;;;7.30;100.00;94459.50;5072104;28;20205;-76
2021/05/30 04:48:21;;;;;;;3.23;2.07;;;;;;;7.52;100.00;94467.59;5072103;28;20202;-76
2021/05/30 04:51:05;;;;;;;3.37;2.23;;;;;;;7.76;100.00;94466.75;5072177;28;20245;-76
2021/05/30 04:53:31;;;;;;;5.07;2.50;;;;;;;7.90;100.00;94457.47;5072383;28;20199;-76
2021/05/30 04:56:01;;;;;;;4.37;2.10;;;;;;;7.94;100.00;94458.75;5071943;28;20260;-76
2021/05/30 04:58:27;;;;;;;3.70;2.70;;;;;;;8.15;100.00;94459.00;5072266;28;20206;-76
2021/05/30 05:00:53;;;;;;;4.17;2.13;;;;;;;8.25;98.79;94464.00;5071988;28;20565;-75
2021/05/30 05:03:22;;;;;;;3.77;2.00;;;;;;;8.34;98.97;94452.59;5073414;28;20369;-75
2021/05/30 05:05:54;;;;;;;3.17;2.47;;;;;;;8.41;97.63;94452.72;5075743;28;20203;-75
2021/05/30 05:08:20;;;;;;;2.67;1.97;;;;;;;8.56;97.23;94454.63;5075672;28;20206;-76
2021/05/30 05:10:52;;;;;;;3.03;1.93;;;;;;;8.71;95.04;94450.31;5075434;28;20199;-76
2021/05/30 05:13:21;;;;;;;3.07;2.10;;;;;;;8.75;94.71;94456.78;5075195;28;20676;-75
2021/05/30 05:15:55;;;;;;;4.93;2.70;;;;;;;8.78;95.21;94455.66;5075313;28;20226;-75
2021/05/30 05:18:22;;;;;;;4.73;2.10;;;;;;;8.98;92.97;94450.81;5075525;28;20212;-76
2021/05/30 05:20:49;;;;;;;2.70;2.00;;;;;;;9.27;92.89;94455.28;5075342;28;20293;-76
2021/05/30 05:23:21;;;;;;;2.73;2.00;;;;;;;9.64;87.87;94461.47;5075186;28;20227;-75
2021/05/30 05:25:49;;;;;;;2.43;2.00;;;;;;;9.95;87.54;94445.69;5075155;28;20213;-76
2021/05/30 05:28:15;;;;;;;2.93;2.00;;;;;;;10.12;85.39;94463.78;5075318;28;20202;-75
2021/05/30 05:30:46;;;;;;;4.83;1.90;;;;;;;10.23;84.72;94457.31;5075211;28;20210;-75
2021/05/30 05:33:12;;;;;;;3.00;2.07;;;;;;;10.35;84.06;94454.06;5075101;28;20211;-75
2021/05/30 05:35:43;;;;;;;6.10;2.00;;;;;;;10.61;82.79;94449.34;5075049;28;20226;-75
2021/05/30 05:38:09;;;;;;;2.53;1.67;;;;;;;11.19;79.41;94457.16;5075043;28;20199;-75
2021/05/30 05:40:37;;;;;;;3.17;2.23;;;;;;;12.01;77.05;94440.13;5074897;28;20661;-75
2021/05/30 05:43:07;;;;;;;9.50;1.70;;;;;;;13.28;70.57;94443.16;5074830;28;20205;-75
2021/05/30 05:45:34;;;;;;;7.57;2.03;;;;;;;14.36;66.57;94445.50;5074748;28;20203;-75
2021/05/30 05:48:01;;;;;;;2.63;1.80;;;;;;;14.50;64.32;94441.00;5074866;28;20297;-75
2021/05/30 05:50:27;;;;;;;3.30;1.70;;;;;;;16.30;59.36;94438.16;5074765;28;20289;-75
2021/05/30 05:52:56;;;;;;;1.50;1.40;;;;;;;16.67;57.77;94438.13;5074605;28;20198;-75
2021/05/30 05:55:22;;;;;;;3.92;1.52;;;;;;;16.24;57.85;94435.38;5074377;28;20230;-75
2021/05/30 05:57:51;;;;;;;3.95;2.03;;;;;;;15.79;57.97;94432.97;5074962;28;20203;-75
2021/05/30 06:00:19;;;;;;;3.92;1.73;;;;;;;16.05;58.61;94441.66;5074229;28;20503;-75
2021/05/30 06:02:47;;;;;;;2.10;1.40;;;;;;;16.85;56.19;94435.50;5074577;28;20229;-77
2021/05/30 06:05:16;;;;;;;1.95;1.40;;;;;;;16.86;56.79;94446.88;5074362;28;20727;-76
2021/05/30 06:07:42;;;;;;;3.95;2.00;;;;;;;15.75;58.27;94441.50;5074558;28;20209;-76
2021/05/30 06:10:10;;;;;;;2.47;1.40;;;;;;;16.20;57.28;94439.47;5074354;28;20199;-75
2021/05/30 06:12:36;;;;;;;2.03;1.60;;;;;;;16.20;58.37;94452.63;5074585;28;20215;-75
2021/05/30 06:15:03;;;;;;;3.38;1.52;;;;;;;15.33;60.22;94445.44;5073808;28;20226;-75
2021/05/30 06:17:29;;;;;;;2.67;1.65;;;;;;;14.62;64.36;94446.44;5074254;28;20294;-75
2021/05/30 06:19:55;;;;;;;2.83;1.63;;;;;;;14.29;65.86;94444.72;5074376;28;20195;-77
2021/05/30 06:22:21;;;;;;;3.13;1.80;;;;;;;13.35;68.73;94440.56;5074361;28;20194;-77
2021/05/30 06:24:47;;;;;;;3.13;1.58;;;;;;;13.17;67.45;94446.38;5073831;28;20257;-76
2021/05/30 06:27:13;;;;;;;3.13;1.50;;;;;;;13.23;68.35;94445.59;5074162;28;20206;-76
2021/05/30 06:29:39;;;;;;;2.95;2.08;;;;;;;13.41;67.81;94437.16;5074012;28;20198;-76
2021/05/30 06:32:07;;;;;;;3.88;1.70;;;;;;;13.45;68.69;94447.03;5073995;28;20257;-76
2021/05/30 06:34:33;;;;;;;2.90;1.92;;;;;;;13.38;69.14;94451.47;5073812;28;20573;-76
2021/05/30 06:36:59;;;;;;;2.38;1.75;;;;;;;13.45;69.02;94449.66;5073663;28;20359;-76
2021/05/30 06:39:26;;;;;;;2.92;2.10;;;;;;;13.59;69.34;94445.22;5073764;28;20658;-76
2021/05/30 06:41:52;;;;;;;4.95;1.88;;;;;;;13.31;68.12;94451.44;5076229;28;20293;-76
2021/05/30 06:44:19;;;;;;;3.75;1.92;;;;;;;13.05;68.71;94454.00;5073851;28;20206;-75
2021/05/30 06:46:45;;;;;;;2.33;2.13;;;;;;;12.89;69.19;94453.38;5073741;28;20209;-75
2021/05/30 06:49:12;;;;;;;5.07;2.05;;;;;;;12.94;70.82;94453.59;5073464;28;20232;-75
2021/05/30 06:51:38;;;;;;;2.85;2.33;;;;;;;12.43;69.75;94451.41;5073509;28;20632;-75
2021/05/30 06:54:05;;;;;;;3.95;2.10;;;;;;;12.54;70.45;94453.47;5073481;28;20294;-75
2021/05/30 06:56:31;;;;;;;7.13;2.00;;;;;;;12.54;70.48;94460.50;5073513;28;20230;-75
2021/05/30 06:58:59;;;;;;;4.25;2.15;;;;;;;12.61;70.52;94460.53;5073568;28;20600;-75
2021/05/30 07:01:25;;;;;;;5.87;2.10;;;;;;;12.64;71.79;94452.28;5073526;28;20232;-77
2021/05/30 07:03:52;;;;;;;3.37;2.10;;;;;;;12.69;72.28;94462.97;5073334;28;20203;-75
2021/05/30 07:06:19;;;;;;;4.20;2.20;;;;;;;12.66;71.25;94460.78;5073492;28;20198;-77
2021/05/30 07:08:46;;;;;;;2.23;1.90;;;;;;;12.80;69.74;94467.66;5073486;28;20285;-75
2021/05/30 07:11:12;;;;;;;8.57;1.73;;;;;;;12.78;67.55;94459.19;5073334;28;20205;-75
2021/05/30 07:13:39;;;;;;;3.97;2.13;;;;;;;12.90;69.19;94457.59;5073097;28;20751;-74
2021/05/30 07:16:05;;;;;;;2.50;1.70;;;;;;;12.85;65.87;94464.44;5073059;28;20314;-75
2021/05/30 07:18:31;;;;;;;2.90;2.00;;;;;;;12.81;67.63;94461.41;5073227;28;20279;-76
2021/05/30 07:20:57;;;;;;;3.07;1.70;;;;;;;12.76;65.06;94458.59;5073065;28;20211;-75
2021/05/30 07:23:24;;;;;;;3.33;1.93;;;;;;;12.88;65.79;94459.63;5073087;28;20230;-76
2021/05/30 07:25:54;;;;;;;2.93;1.77;;;;;;;12.98;66.87;94468.94;5072321;28;20551;-78
2021/05/30 07:28:20;;;;;;;4.10;2.00;;;;;;;12.84;67.64;94468.06;5072848;28;20438;-76
2021/05/30 07:30:47;;;;;;;2.67;2.23;;;;;;;12.95;65.44;94464.88;5072822;28;20203;-76
2021/05/30 07:33:13;;;;;;;3.47;1.97;;;;;;;13.06;67.49;94469.56;5073160;28;20211;-75
2021/05/30 07:35:41;;;;;;;2.77;1.67;;;;;;;13.12;65.68;94471.38;5073071;28;20313;-76
2021/05/30 07:38:07;;;;;;;2.10;1.90;;;;;;;13.41;69.55;94468.63;5073008;28;20203;-76
2021/05/30 07:40:35;;;;;;;4.60;1.83;;;;;;;13.56;68.16;94465.81;5072824;28;20203;-76
2021/05/30 07:43:02;;;;;;;3.17;1.70;;;;;;;13.64;66.15;94463.00;5072771;28;20657;-76
2021/05/30 07:45:28;;;;;;;3.63;1.70;;;;;;;13.68;63.07;94464.19;5072830;28;20197;-76
2021/05/30 07:47:55;;;;;;;3.47;1.83;;;;;;;13.81;63.94;94460.75;5073033;28;20198;-75
2021/05/30 07:50:21;;;;;;;3.80;1.50;;;;;;;13.80;64.57;94457.31;5072867;28;20199;-76
2021/05/30 07:52:48;;;;;;;4.63;2.10;;;;;;;14.09;65.13;94464.94;5072823;28;20202;-77
2021/05/30 07:55:15;;;;;;;2.27;1.70;;;;;;;14.31;63.75;94453.19;5072680;28;20222;-76
2021/05/30 07:57:42;;;;;;;5.23;2.07;;;;;;;14.46;62.71;94457.41;5072815;28;20198;-75
2021/05/30 08:00:10;;;;;;;3.23;1.83;;;;;;;14.56;61.52;94458.56;5072667;28;20203;-75
2021/05/30 08:02:36;;;;;;;2.97;1.80;;;;;;;14.72;60.30;94465.22;5072522;28;20210;-76
2021/05/30 08:05:03;;;;;;;5.25;1.75;;;;;;;14.43;58.77;94463.88;5072621;28;20205;-76
2021/05/30 08:07:29;;;;;;;1.80;1.60;;;;;;;14.42;60.27;94467.50;5072670;28;20535;-78
2021/05/30 08:09:55;;;;;;;2.63;1.63;;;;;;;14.29;62.97;94472.78;5072584;28;20199;-78
2021/05/30 08:12:21;;;;;;;3.35;1.88;;;;;;;14.16;61.01;94466.56;5072536;28;20201;-76
2021/05/30 08:14:48;;;;;;;2.03;1.67;;;;;;;14.38;61.95;94456.59;5072800;28;20194;-76
2021/05/30 08:17:14;;;;;;;2.47;1.63;;;;;;;14.54;57.68;94454.56;5072621;28;20222;-77
2021/05/30 08:19:40;;;;;;;2.60;1.38;;;;;;;14.35;60.52;94464.88;5072492;28;20289;-76
2021/05/30 08:22:08;;;;;;;2.95;1.63;;;;;;;14.53;58.99;94471.31;5072462;28;20209;-76
2021/05/30 08:24:36;;;;;;;4.50;1.83;;;;;;;14.96;58.47;94474.19;5072276;28;20237;-76
2021/05/30 08:27:02;;;;;;;2.28;1.58;;;;;;;15.34;56.96;94473.38;5072287;28;20654;-76
2021/05/30 08:29:28;;;;;;;1.77;1.15;;;;;;;15.23;54.90;94476.69;5072401;28;20553;-76
2021/05/30 08:31:59;;;;;;;2.40;1.48;;;;;;;15.32;55.21;94472.78;5072229;28;20199;-75
2021/05/30 08:34:28;;;;;;;2.80;1.50;;;;;;;15.28;54.95;94471.59;5072511;28;20203;-75
2021/05/30 08:36:55;;;;;;;1.30;1.20;;;;;;;15.36;54.91;94473.16;5075503;28;20689;-76
2021/05/30 08:39:21;;;;;;;1.98;1.00;;;;;;;15.28;52.15;94476.06;5076100;28;20202;-76
2021/05/30 08:41:47;;;;;;;1.45;1.25;;;;;;;15.02;50.04;94474.38;5076047;28;20332;-75
2021/05/30 08:44:13;;;;;;;4.15;1.40;;;;;;;14.84;50.85;94475.06;5076165;28;20249;-75
2021/05/30 08:46:40;;;;;;;1.13;1.02;;;;;;;14.94;50.38;94481.50;5076145;28;20206;-76
2021/05/30 08:49:07;;;;;;;1.17;1.00;;;;;;;14.88;47.88;94479.69;5075959;28;20260;-76
2021/05/30 08:51:36;;;;;;;1.30;1.20;;;;;;;14.74;46.22;94484.22;5075894;28;20198;-77
2021/05/30 08:54:08;;;;;;;1.23;1.00;;;;;;;14.34;47.09;94483.47;5075671;28;20199;-76
2021/05/30 08:56:34;;;;;;;1.90;1.10;;;;;;;14.15;44.09;94485.16;5075095;28;20511;-76
2021/05/30 08:59:14;;;;;;;5.47;1.20;;;;;;;14.20;46.88;94478.25;5075952;28;20596;-76
2021/05/30 09:01:43;;;;;;;1.43;1.00;;;;;;;14.27;44.85;94483.50;5075922;28;20214;-76
2021/05/30 09:04:10;;;;;;;2.20;1.20;;;;;;;14.16;45.54;94481.53;5075738;28;20199;-76
2021/05/30 09:06:38;;;;;;;2.17;1.33;;;;;;;14.21;43.98;94481.72;5075532;28;20540;-76
2021/05/30 09:09:06;;;;;;;1.77;1.00;;;;;;;14.39;47.56;94470.56;5075746;28;20222;-76
2021/05/30 09:11:41;;;;;;;2.23;1.10;;;;;;;14.61;48.43;94479.81;5075608;28;20206;-75
2021/05/30 09:14:10;;;;;;;3.10;1.10;;;;;;;14.82;45.46;94477.09;5075355;28;20208;-76
2021/05/30 09:16:52;;;;;;;3.37;1.00;;;;;;;14.80;45.09;94483.38;5075364;28;20589;-76
2021/05/30 09:19:47;;;;;;;2.10;1.45;;;;;;;14.85;45.83;94468.78;5075338;28;20203;-76
2021/05/30 09:22:36;;;;;;;2.13;1.50;;;;;;;15.12;48.75;94459.75;5075517;28;20203;-76
2021/05/30 09:25:08;;;;;;;2.45;1.33;;;;;;;14.98;44.40;94472.16;5070938;28;20198;-76
2021/05/30 09:27:35;;;;;;;4.60;1.50;;;;;;;14.77;45.83;94475.09;5075132;28;20202;-76
2021/05/30 09:30:14;;;;;;;3.28;1.50;;;;;;;14.84;45.54;94483.78;5074755;28;20435;-75
2021/05/30 09:32:53;;;;;;;1.80;1.30;;;;;;;14.87;45.70;94472.84;5075255;28;20203;-77
2021/05/30 09:35:24;;;;;;;2.53;1.27;;;;;;;14.97;46.57;94481.06;5074908;28;20222;-77
2021/05/30 09:38:00;;;;;;;3.15;1.40;;;;;;;14.75;45.67;94470.03;5074984;28;20206;-77
2021/05/30 09:40:39;;;;;;;4.32;1.58;;;;;;;14.98;47.25;94476.63;5074021;28;20932;-76
2021/05/30 09:43:08;;;;;;;3.63;1.80;;;;;;;14.83;48.63;94466.38;5074870;28;20657;-76
2021/05/30 09:45:34;;;;;;;2.72;1.48;;;;;;;14.78;45.30;94474.88;5074950;28;20206;-76
2021/05/30 09:48:01;;;;;;;9.65;1.55;;;;;;;14.77;45.84;94478.53;5074440;28;20203;-76
2021/05/30 09:50:32;;;;;;;2.58;1.50;;;;;;;14.90;45.47;94487.38;5074301;28;20211;-77
2021/05/30 09:53:00;;;;;;;3.53;1.38;;;;;;;15.16;45.98;94494.34;5075186;28;20200;-76
2021/05/30 09:55:28;;;;;;;3.15;1.70;;;;;;;15.06;48.78;94475.56;5074719;28;20226;-77
2021/05/30 09:58:09;;;;;;;5.90;1.70;;;;;;;14.88;45.76;94478.91;5074767;28;20195;-77
2021/05/30 10:00:36;;;;;;;2.60;1.58;;;;;;;14.68;45.39;94474.53;5074622;28;20303;-76
2021/05/30 10:03:02;;;;;;;2.20;1.25;;;;;;;14.95;46.21;94477.03;5074542;28;20290;-77
2021/05/30 10:05:29;;;;;;;6.72;1.58;;;;;;;15.00;46.44;94487.72;5074654;28;20210;-77
2021/05/30 10:07:56;;;;;;;1.88;1.23;;;;;;;14.88;47.43;94490.22;5074634;28;20237;-76
2021/05/30 10:10:23;;;;;;;3.83;1.40;;;;;;;14.57;46.39;94480.38;5074166;28;20195;-75
2021/05/30 10:12:50;;;;;;;2.97;1.40;;;;;;;14.76;45.53;94476.91;5087921;28;20193;-76
2021/05/30 10:15:17;;;;;;;4.63;1.47;;;;;;;14.84;50.97;94473.25;5094242;28;20216;-77
2021/05/30 10:17:44;;;;;;;3.47;1.65;;;;;;;14.95;44.68;94484.91;5094375;28;20663;-77
2021/05/30 10:20:15;;;;;;;2.33;1.30;;;;;;;14.50;44.47;94479.63;5094510;28;20194;-75
2021/05/30 10:22:43;;;;;;;2.22;1.40;;;;;;;14.69;45.89;94470.06;5093612;28;20459;-75
2021/05/30 10:25:10;;;;;;;5.35;1.45;;;;;;;14.87;47.75;94480.72;5094414;28;20202;-76
2021/05/30 10:27:37;;;;;;;2.60;1.50;;;;;;;15.12;46.20;94474.72;5094097;28;20217;-78
2021/05/30 10:30:17;;;;;;;2.27;1.60;;;;;;;15.31;49.61;94473.00;5094019;28;20281;-78
2021/05/30 10:32:45;;;;;;;3.75;1.65;;;;;;;15.20;45.01;94471.84;5094061;28;20210;-77
2021/05/30 10:35:16;;;;;;;3.70;1.70;;;;;;;15.52;50.13;94471.81;5094201;28;20296;-76
2021/05/30 10:37:44;;;;;;;2.35;1.38;;;;;;;15.61;47.56;94467.13;5094159;28;20209;-76
2021/05/30 10:40:28;;;;;;;5.00;1.58;;;;;;;15.63;46.24;94455.34;5092033;28;20198;-76
2021/05/30 10:43:17;;;;;;;3.55;1.38;;;;;;;15.51;45.94;94463.13;5073860;28;20290;-75
2021/05/30 10:46:06;;;;;;;1.70;1.60;;;;;;;15.72;46.01;94469.03;5073736;28;20210;-78
2021/05/30 10:48:33;;;;;;;3.53;1.80;;;;;;;15.68;46.81;94465.25;5073581;28;20198;-76
2021/05/30 10:51:15;;;;;;;2.97;1.23;;;;;;;15.53;47.06;94471.63;5073433;28;20666;-76
2021/05/30 10:53:44;;;;;;;2.15;1.48;;;;;;;15.46;44.71;94470.88;5073785;28;20221;-77
2021/05/30 10:56:14;;;;;;;1.92;1.50;;;;;;;15.38;43.87;94462.44;5073349;28;20310;-76
2021/05/30 10:58:41;;;;;;;2.97;1.50;;;;;;;15.67;47.14;94456.53;5073406;28;20361;-76
2021/05/30 11:01:39;;;;;;;5.20;1.60;;;;;;;15.76;47.08;94459.75;5073181;28;20206;-76
2021/05/30 11:04:32;;;;;;;3.65;1.60;;;;;;;15.91;45.12;94468.09;5073448;28;20207;-76
2021/05/30 11:07:01;;;;;;;4.25;1.58;;;;;;;15.66;48.47;94462.81;5073304;28;20209;-75
2021/05/30 11:10:02;;;;;;;3.50;1.58;;;;;;;15.84;43.90;94453.41;5073058;28;20628;-77
2021/05/30 11:12:29;;;;;;;4.07;1.60;;;;;;;15.83;43.07;94457.03;5073300;28;20205;-75
2021/05/30 11:15:22;;;;;;;2.72;1.38;;;;;;;15.85;45.28;94453.19;5073102;28;20261;-76
2021/05/30 11:17:49;;;;;;;1.88;1.40;;;;;;;15.91;42.37;94456.78;5072995;28;20549;-77
2021/05/30 11:20:17;;;;;;;4.47;1.52;;;;;;;16.28;45.68;94447.06;5073285;28;20222;-77
2021/05/30 11:22:46;;;;;;;3.20;1.70;;;;;;;16.15;45.07;94447.22;5073080;28;20202;-77
2021/05/30 11:25:15;;;;;;;5.47;1.75;;;;;;;16.00;43.16;94452.81;5073259;28;20198;-77
2021/05/30 11:27:49;;;;;;;2.20;1.40;;;;;;;16.03;46.96;94449.75;5072940;28;20199;-77
2021/05/30 11:30:40;;;;;;;3.05;1.40;;;;;;;15.97;45.93;94449.81;5072882;28;20199;-76
2021/05/30 11:33:07;;;;;;;2.20;1.60;;;;;;;15.89;46.45;94446.47;5073158;28;20199;-76
2021/05/30 11:35:34;;;;;;;4.10;1.90;;;;;;;16.07;45.97;94432.50;5072915;28;20589;-75
2021/05/30 11:38:01;;;;;;;1.67;1.40;;;;;;;16.12;44.25;94436.31;5072894;28;20202;-76
2021/05/30 11:40:28;;;;;;;4.15;1.70;;;;;;;16.28;46.25;94435.75;5071745;28;20434;-78